Overview Statistics Trail Chart Weather Telemetry Raw packets
 

This is the latest recevied weather packets stored in our database for station/object KC2GYU. If no packets are shown the sender has not sent any weather packets the latest 10 day(s).

<< 86 87 88 89 90 91 92 >>
Time Temp. Humidity Pressure Rain* Wind** Luminosity Snow
1777410932 13.89° C 75% 1019.6 hPa 0 mm - 101 W/m² -
1777410632 13.89° C 74% 1019.7 hPa 0 mm - 90 W/m² -
1777410327 13.89° C 69% 1019.7 hPa 0 mm - 101 W/m² -
1777410021 14.44° C 67% 1019.6 hPa 0 mm - 121 W/m² -
1777409716 14.44° C 66% 1019.5 hPa 0 mm - 119 W/m² -
1777409412 14.44° C 67% 1019.7 hPa 0 mm - 168 W/m² -
1777409108 14.44° C 71% 1019.6 hPa 0 mm - 259 W/m² -
1777408805 14.44° C 75% 1019.5 hPa 0 mm - 178 W/m² -
1777408501 14.44° C 74% 1019.7 hPa 0 mm - 131 W/m² -
1777408201 14.44° C 75% 1019.5 hPa 0 mm - 121 W/m² -
1777407896 14.44° C 73% 1019.6 hPa 0 mm - 143 W/m² -
1777407595 14.44° C 68% 1019.8 hPa 0 mm - 138 W/m² -
1777407294 14.44° C 66% 1020 hPa 0 mm - 116 W/m² -
1777406994 14.44° C 66% 1020 hPa 0 mm - 114 W/m² -
1777406689 15° C 65% 1020 hPa 0 mm - 171 W/m² -
1777406385 15° C 63% 1020 hPa 0 mm - 213 W/m² -
1777406084 14.44° C 65% 1020 hPa 0 mm - 232 W/m² -
1777405781 14.44° C 63% 1020.3 hPa 0 mm - 173 W/m² -
1777405477 14.44° C 67% 1019.8 hPa 0 mm - 141 W/m² -
1777405175 14.44° C 67% 1019.9 hPa 0 mm - 98 W/m² -
1777404872 14.44° C 65% 1020.1 hPa 0 mm - 92 W/m² -
1777404570 14.44° C 62% 1020.2 hPa 0 mm - 97 W/m² -
1777404266 15° C 62% 1020 hPa 0 mm - 113 W/m² -
1777403962 15° C 60% 1020 hPa 0 mm - 116 W/m² -
1777403661 15° C 59% 1020.4 hPa 0 mm - 138 W/m² -

* Rain latest hour (hover to see other rain measurements)
** Current wind speed in m/s (hover to see current wind gust speed)